フランクフルト の空港の天気 - METARとTAF

フランクフルト国際空港 ( EDDF / FRA ) - ドイツ フランクフルト・アム・マイン
飛行場実況気象(Metar)
観測時間08/25 20:50 CEST (08/25 18:50 UTC)
風向・風速西南西 2m/s
視程10km以上
天気現象
少しの雲 雲底高度 2130m
気温25℃
湿度54%
気圧1018hPa
METAREDDF 251850Z 24004KT 9999 FEW070CB 25/15 Q1018 NOSIG
過去の天気等 Google飛行場航空写真 Wunderground天気予報

過去48時間のMETAR

飛行場予報(TAF)
発表時間: 8/25 19:00 CEST (8/25 17:00 UTC)
予報対象時間: 25日20時 CEST ~ 27日2時 CEST
風向・風速南 3m/s
視程10km以上
なし
25日20時 CEST ~ 25日23時 CEST に徐々に
風向・風速北東 2m/s
26日15時 CEST ~ 26日20時 CEST に 確率 30% で一時的に
天気現象雷雨
全天の8割程度の積乱雲 雲底高度 1220m
TAF EDDF 251700Z 2518/2624 18005KT CAVOK
BECMG 2518/2521 05004KT
PROB30 TEMPO 2613/2618 TSRA BKN040CB